Grand Forks, ND

1:46 AM CDT on May 01, 2017 (GMT -0500)
MND019 | | Change Station

Elev 915 ft 47.98 °N, 97.09 °W | Updated 1 hour ago

Clear
Clear
44.0 °F
Feels Like 41 °F
N
6.0
Wind Variable Wind from NE

Today
High -- | Low -- °F
--% Chance of Precip.
Yesterday
High -- | Low -- °F
Precip. -- in
Pressure 29.85 in
Visibility 10.0 miles
Clouds Clear
Windchill 41 °F
Dew Point 35.0 °F
Humidity 73%
Rainfall in
Snow Depth Not available.
6:09 AM 8:41 PM
Waxing Crescent, 30% visible
METAR KGFK 010553Z AUTO 06008KT 10SM CLR 08/01 A2983 RMK AO2 SLP106 T00780006 10167 20056 401830022 58012
Pressure 29.85 in
Visibility 10.0 miles
Clouds Clear
Windchill 41 °F
Dew Point 35.0 °F
Humidity 73%
Rainfall in
Snow Depth Not available.
6:09 AM 8:41 PM
Waxing Crescent, 30% visible
METAR KGFK 010553Z AUTO 06008KT 10SM CLR 08/01 A2983 RMK AO2 SLP106 T00780006 10167 20056 401830022 58012

Get Severe Weather Alerts

Thanks for signing up!

Be on the lookout for a verification email in your inbox.

You'll start receiving the daily forecast at 8 AM.

×

10-Day Weather Forecast

Almanac

Astronomy

May. 01, 2017 Rise Set
Actual Time
Civil Twilight
Nautical Twilight
Astronomical Twilight
Moon
Length of Visible Light
Length of Day
Tomorrow will be .
, % of the Moon is Illuminated

Today's Extremes

State Highs State Lows

Community

WunderPhotos

WunderBlog® & News

Nearby

Air Quality

  Air Quality AQ Index Pollutant
Not available.

Snow Depth

Station Depth Elevation

Earthquake Activity

City Distance Mag. Time & Date
Minimum magnitude displayed is 2.5.

Coastal Water Temperatures

Place Temperature

Stations

Nearby Weather Stations

Station Location Temp. Windchill Dew Point Humidity Wind Precip. Elev Updated Type
                   

Watches & Warnings

There are currently no watches in effect.